sensor_id;sensor_type;location;lat;lon;timestamp;P1;durP1;ratioP1;P2;durP2;ratioP2
46086;SDS011;31824;49.648;8.640;2022-08-19T00:02:10;8.70;;;4.80;;
46086;SDS011;31824;49.648;8.640;2022-08-19T00:05:12;8.32;;;4.70;;
46086;SDS011;31824;49.648;8.640;2022-08-19T00:08:17;10.20;;;4.95;;
46086;SDS011;31824;49.648;8.640;2022-08-19T00:11:19;6.93;;;4.70;;
46086;SDS011;31824;49.648;8.640;2022-08-19T00:14:26;7.78;;;4.85;;
46086;SDS011;31824;49.648;8.640;2022-08-19T00:17:30;6.80;;;4.30;;
46086;SDS011;31824;49.648;8.640;2022-08-19T00:20:31;8.80;;;4.82;;
46086;SDS011;31824;49.648;8.640;2022-08-19T00:23:33;8.00;;;4.80;;
46086;SDS011;31824;49.648;8.640;2022-08-19T00:26:36;9.05;;;4.90;;
46086;SDS011;31824;49.648;8.640;2022-08-19T00:29:38;7.18;;;4.20;;
46086;SDS011;31824;49.648;8.640;2022-08-19T00:32:39;7.03;;;4.60;;
46086;SDS011;31824;49.648;8.640;2022-08-19T00:35:41;7.75;;;4.68;;
46086;SDS011;31824;49.648;8.640;2022-08-19T00:38:43;10.63;;;5.78;;
46086;SDS011;31824;49.648;8.640;2022-08-19T00:41:45;9.13;;;5.10;;
46086;SDS011;31824;49.648;8.640;2022-08-19T00:44:48;10.25;;;5.65;;
46086;SDS011;31824;49.648;8.640;2022-08-19T00:47:51;7.45;;;4.88;;
46086;SDS011;31824;49.648;8.640;2022-08-19T00:50:53;9.82;;;5.32;;
46086;SDS011;31824;49.648;8.640;2022-08-19T00:53:56;8.23;;;5.20;;
46086;SDS011;31824;49.648;8.640;2022-08-19T00:56:59;9.35;;;5.20;;
46086;SDS011;31824;49.648;8.640;2022-08-19T01:00:06;9.18;;;5.20;;
46086;SDS011;31824;49.648;8.640;2022-08-19T01:03:15;9.88;;;5.30;;
46086;SDS011;31824;49.648;8.640;2022-08-19T01:06:19;9.13;;;5.28;;
46086;SDS011;31824;49.648;8.640;2022-08-19T01:09:21;9.70;;;5.15;;
46086;SDS011;31824;49.648;8.640;2022-08-19T01:12:23;9.40;;;5.03;;
46086;SDS011;31824;49.648;8.640;2022-08-19T01:15:29;7.95;;;5.00;;
46086;SDS011;31824;49.648;8.640;2022-08-19T01:18:35;8.70;;;5.35;;
46086;SDS011;31824;49.648;8.640;2022-08-19T01:21:48;7.78;;;5.00;;
46086;SDS011;31824;49.648;8.640;2022-08-19T01:24:56;9.30;;;5.25;;
46086;SDS011;31824;49.648;8.640;2022-08-19T01:27:59;9.05;;;5.47;;
46086;SDS011;31824;49.648;8.640;2022-08-19T01:31:15;9.57;;;5.78;;
46086;SDS011;31824;49.648;8.640;2022-08-19T01:34:27;9.65;;;5.18;;
46086;SDS011;31824;49.648;8.640;2022-08-19T01:37:29;9.02;;;4.68;;
46086;SDS011;31824;49.648;8.640;2022-08-19T01:40:42;12.13;;;5.50;;
46086;SDS011;31824;49.648;8.640;2022-08-19T01:43:44;8.80;;;5.05;;
46086;SDS011;31824;49.648;8.640;2022-08-19T01:47:06;10.93;;;5.60;;
46086;SDS011;31824;49.648;8.640;2022-08-19T01:50:09;10.57;;;5.28;;
46086;SDS011;31824;49.648;8.640;2022-08-19T01:53:12;9.65;;;5.35;;
46086;SDS011;31824;49.648;8.640;2022-08-19T01:56:13;9.10;;;4.97;;
46086;SDS011;31824;49.648;8.640;2022-08-19T01:59:16;10.77;;;5.35;;
46086;SDS011;31824;49.648;8.640;2022-08-19T02:02:21;8.05;;;5.20;;
46086;SDS011;31824;49.648;8.640;2022-08-19T02:05:22;9.80;;;5.90;;
46086;SDS011;31824;49.648;8.640;2022-08-19T02:08:25;11.95;;;5.50;;
46086;SDS011;31824;49.648;8.640;2022-08-19T02:11:29;10.98;;;5.72;;
46086;SDS011;31824;49.648;8.640;2022-08-19T02:14:35;9.38;;;4.97;;
46086;SDS011;31824;49.648;8.640;2022-08-19T02:17:37;8.98;;;5.38;;
46086;SDS011;31824;49.648;8.640;2022-08-19T02:20:40;9.88;;;5.65;;
46086;SDS011;31824;49.648;8.640;2022-08-19T02:23:44;10.02;;;5.57;;
46086;SDS011;31824;49.648;8.640;2022-08-19T02:26:46;10.50;;;6.20;;
46086;SDS011;31824;49.648;8.640;2022-08-19T02:29:48;10.98;;;5.68;;
46086;SDS011;31824;49.648;8.640;2022-08-19T02:32:51;9.55;;;5.47;;
46086;SDS011;31824;49.648;8.640;2022-08-19T02:35:52;9.50;;;5.43;;
46086;SDS011;31824;49.648;8.640;2022-08-19T02:38:54;8.52;;;4.78;;
46086;SDS011;31824;49.648;8.640;2022-08-19T02:41:56;8.05;;;4.60;;
46086;SDS011;31824;49.648;8.640;2022-08-19T02:45:00;8.30;;;4.75;;
46086;SDS011;31824;49.648;8.640;2022-08-19T02:48:02;8.27;;;5.38;;
46086;SDS011;31824;49.648;8.640;2022-08-19T02:51:22;9.02;;;4.78;;
46086;SDS011;31824;49.648;8.640;2022-08-19T02:54:28;8.52;;;4.85;;
46086;SDS011;31824;49.648;8.640;2022-08-19T02:57:30;8.95;;;5.35;;
46086;SDS011;31824;49.648;8.640;2022-08-19T03:00:32;8.30;;;4.85;;
46086;SDS011;31824;49.648;8.640;2022-08-19T03:03:39;9.50;;;4.60;;
46086;SDS011;31824;49.648;8.640;2022-08-19T03:06:42;9.05;;;5.15;;
46086;SDS011;31824;49.648;8.640;2022-08-19T03:09:46;9.90;;;5.28;;
46086;SDS011;31824;49.648;8.640;2022-08-19T03:13:05;8.52;;;4.47;;
46086;SDS011;31824;49.648;8.640;2022-08-19T03:16:07;8.75;;;4.70;;
46086;SDS011;31824;49.648;8.640;2022-08-19T03:19:08;9.13;;;4.97;;
46086;SDS011;31824;49.648;8.640;2022-08-19T03:22:10;8.38;;;4.97;;
46086;SDS011;31824;49.648;8.640;2022-08-19T03:25:11;8.13;;;4.75;;
46086;SDS011;31824;49.648;8.640;2022-08-19T03:28:14;8.80;;;4.50;;
46086;SDS011;31824;49.648;8.640;2022-08-19T03:31:17;10.65;;;5.05;;
46086;SDS011;31824;49.648;8.640;2022-08-19T03:34:40;8.82;;;5.07;;
46086;SDS011;31824;49.648;8.640;2022-08-19T03:37:41;8.95;;;5.65;;
46086;SDS011;31824;49.648;8.640;2022-08-19T03:40:43;8.77;;;4.65;;
46086;SDS011;31824;49.648;8.640;2022-08-19T03:43:45;9.60;;;5.38;;
46086;SDS011;31824;49.648;8.640;2022-08-19T03:46:56;11.15;;;5.28;;
46086;SDS011;31824;49.648;8.640;2022-08-19T03:49:59;9.45;;;5.90;;
46086;SDS011;31824;49.648;8.640;2022-08-19T03:53:01;9.23;;;5.30;;
46086;SDS011;31824;49.648;8.640;2022-08-19T03:56:02;10.13;;;5.15;;
46086;SDS011;31824;49.648;8.640;2022-08-19T03:59:07;10.02;;;5.38;;
46086;SDS011;31824;49.648;8.640;2022-08-19T04:02:10;11.77;;;5.53;;
46086;SDS011;31824;49.648;8.640;2022-08-19T04:05:13;8.68;;;4.82;;
46086;SDS011;31824;49.648;8.640;2022-08-19T04:08:16;9.13;;;5.18;;
46086;SDS011;31824;49.648;8.640;2022-08-19T04:11:22;13.73;;;5.35;;
46086;SDS011;31824;49.648;8.640;2022-08-19T04:14:44;7.63;;;4.40;;
46086;SDS011;31824;49.648;8.640;2022-08-19T04:17:46;10.15;;;5.72;;
46086;SDS011;31824;49.648;8.640;2022-08-19T04:20:48;8.07;;;4.95;;
46086;SDS011;31824;49.648;8.640;2022-08-19T04:23:50;9.05;;;4.65;;
46086;SDS011;31824;49.648;8.640;2022-08-19T04:26:56;8.70;;;4.93;;
46086;SDS011;31824;49.648;8.640;2022-08-19T04:29:57;8.75;;;5.22;;
46086;SDS011;31824;49.648;8.640;2022-08-19T04:32:58;8.50;;;4.82;;
46086;SDS011;31824;49.648;8.640;2022-08-19T04:36:00;9.52;;;5.13;;
46086;SDS011;31824;49.648;8.640;2022-08-19T04:39:06;8.40;;;4.60;;
46086;SDS011;31824;49.648;8.640;2022-08-19T04:42:09;8.70;;;5.00;;
46086;SDS011;31824;49.648;8.640;2022-08-19T04:45:31;8.23;;;4.60;;
46086;SDS011;31824;49.648;8.640;2022-08-19T04:48:43;9.07;;;4.72;;
46086;SDS011;31824;49.648;8.640;2022-08-19T04:51:50;11.18;;;5.63;;
46086;SDS011;31824;49.648;8.640;2022-08-19T04:54:55;7.45;;;4.65;;
46086;SDS011;31824;49.648;8.640;2022-08-19T04:57:56;9.02;;;4.45;;
46086;SDS011;31824;49.648;8.640;2022-08-19T05:00:57;10.90;;;5.35;;
46086;SDS011;31824;49.648;8.640;2022-08-19T05:04:02;7.60;;;4.20;;
46086;SDS011;31824;49.648;8.640;2022-08-19T05:07:07;10.52;;;4.93;;
46086;SDS011;31824;49.648;8.640;2022-08-19T05:10:09;8.05;;;4.57;;
46086;SDS011;31824;49.648;8.640;2022-08-19T05:13:11;7.75;;;4.55;;
46086;SDS011;31824;49.648;8.640;2022-08-19T05:16:13;8.52;;;5.05;;
46086;SDS011;31824;49.648;8.640;2022-08-19T05:19:16;10.23;;;4.80;;
46086;SDS011;31824;49.648;8.640;2022-08-19T05:22:36;7.45;;;4.78;;
46086;SDS011;31824;49.648;8.640;2022-08-19T05:25:38;10.27;;;5.13;;
46086;SDS011;31824;49.648;8.640;2022-08-19T05:28:41;7.90;;;4.38;;
46086;SDS011;31824;49.648;8.640;2022-08-19T05:31:43;12.68;;;5.50;;
46086;SDS011;31824;49.648;8.640;2022-08-19T05:34:46;11.90;;;4.85;;
46086;SDS011;31824;49.648;8.640;2022-08-19T05:37:47;10.57;;;5.63;;
46086;SDS011;31824;49.648;8.640;2022-08-19T05:40:55;8.15;;;4.72;;
46086;SDS011;31824;49.648;8.640;2022-08-19T05:43:57;9.73;;;5.10;;
46086;SDS011;31824;49.648;8.640;2022-08-19T05:47:00;10.10;;;5.78;;
46086;SDS011;31824;49.648;8.640;2022-08-19T05:50:03;8.85;;;5.53;;
46086;SDS011;31824;49.648;8.640;2022-08-19T05:53:05;11.05;;;5.32;;
46086;SDS011;31824;49.648;8.640;2022-08-19T05:56:08;8.70;;;5.43;;
46086;SDS011;31824;49.648;8.640;2022-08-19T05:59:11;9.07;;;4.95;;
46086;SDS011;31824;49.648;8.640;2022-08-19T06:02:13;9.52;;;5.40;;
46086;SDS011;31824;49.648;8.640;2022-08-19T06:05:15;10.55;;;5.05;;
46086;SDS011;31824;49.648;8.640;2022-08-19T06:08:17;9.50;;;5.35;;
46086;SDS011;31824;49.648;8.640;2022-08-19T06:11:23;9.80;;;5.00;;
46086;SDS011;31824;49.648;8.640;2022-08-19T06:14:36;10.82;;;5.57;;
46086;SDS011;31824;49.648;8.640;2022-08-19T06:17:42;8.93;;;4.72;;
46086;SDS011;31824;49.648;8.640;2022-08-19T06:20:45;8.45;;;5.05;;
46086;SDS011;31824;49.648;8.640;2022-08-19T06:23:56;9.90;;;5.60;;
46086;SDS011;31824;49.648;8.640;2022-08-19T06:26:58;11.02;;;5.60;;
46086;SDS011;31824;49.648;8.640;2022-08-19T06:30:02;8.95;;;5.15;;
46086;SDS011;31824;49.648;8.640;2022-08-19T06:33:05;8.55;;;4.88;;
46086;SDS011;31824;49.648;8.640;2022-08-19T06:36:07;7.88;;;4.88;;
46086;SDS011;31824;49.648;8.640;2022-08-19T06:39:10;7.80;;;4.93;;
46086;SDS011;31824;49.648;8.640;2022-08-19T06:42:14;8.80;;;4.88;;
46086;SDS011;31824;49.648;8.640;2022-08-19T06:45:22;9.43;;;4.25;;
46086;SDS011;31824;49.648;8.640;2022-08-19T06:48:34;8.77;;;4.70;;
46086;SDS011;31824;49.648;8.640;2022-08-19T06:51:45;9.15;;;5.28;;
46086;SDS011;31824;49.648;8.640;2022-08-19T06:54:49;7.85;;;4.75;;
46086;SDS011;31824;49.648;8.640;2022-08-19T06:57:57;8.95;;;4.63;;
46086;SDS011;31824;49.648;8.640;2022-08-19T07:00:59;7.82;;;4.75;;
46086;SDS011;31824;49.648;8.640;2022-08-19T07:04:09;9.65;;;4.97;;
46086;SDS011;31824;49.648;8.640;2022-08-19T07:07:13;8.35;;;4.55;;
46086;SDS011;31824;49.648;8.640;2022-08-19T07:10:21;9.80;;;5.03;;
46086;SDS011;31824;49.648;8.640;2022-08-19T07:13:25;8.90;;;5.07;;
46086;SDS011;31824;49.648;8.640;2022-08-19T07:16:27;9.27;;;4.88;;
46086;SDS011;31824;49.648;8.640;2022-08-19T07:19:30;8.27;;;4.53;;
46086;SDS011;31824;49.648;8.640;2022-08-19T07:22:33;8.18;;;4.70;;
46086;SDS011;31824;49.648;8.640;2022-08-19T07:25:36;9.70;;;4.75;;
46086;SDS011;31824;49.648;8.640;2022-08-19T07:28:38;7.03;;;4.68;;
46086;SDS011;31824;49.648;8.640;2022-08-19T07:31:51;11.18;;;5.03;;
46086;SDS011;31824;49.648;8.640;2022-08-19T07:34:55;7.10;;;4.22;;
46086;SDS011;31824;49.648;8.640;2022-08-19T07:37:57;8.20;;;4.45;;
46086;SDS011;31824;49.648;8.640;2022-08-19T07:41:00;8.43;;;4.78;;
46086;SDS011;31824;49.648;8.640;2022-08-19T07:44:03;7.25;;;4.35;;
46086;SDS011;31824;49.648;8.640;2022-08-19T07:47:06;7.53;;;4.18;;
46086;SDS011;31824;49.648;8.640;2022-08-19T07:50:28;6.32;;;3.97;;
46086;SDS011;31824;49.648;8.640;2022-08-19T07:53:30;7.78;;;4.28;;
46086;SDS011;31824;49.648;8.640;2022-08-19T07:56:39;5.88;;;3.65;;
46086;SDS011;31824;49.648;8.640;2022-08-19T07:59:41;8.90;;;3.63;;
46086;SDS011;31824;49.648;8.640;2022-08-19T08:02:42;6.57;;;4.18;;
46086;SDS011;31824;49.648;8.640;2022-08-19T08:05:44;7.18;;;3.70;;
46086;SDS011;31824;49.648;8.640;2022-08-19T08:09:05;6.80;;;3.80;;
46086;SDS011;31824;49.648;8.640;2022-08-19T08:12:18;6.10;;;3.45;;
46086;SDS011;31824;49.648;8.640;2022-08-19T08:15:36;6.18;;;3.40;;
46086;SDS011;31824;49.648;8.640;2022-08-19T08:18:43;7.30;;;3.80;;
46086;SDS011;31824;49.648;8.640;2022-08-19T08:21:54;8.85;;;4.13;;
46086;SDS011;31824;49.648;8.640;2022-08-19T08:25:00;5.68;;;3.28;;
46086;SDS011;31824;49.648;8.640;2022-08-19T08:28:06;6.22;;;3.70;;
46086;SDS011;31824;49.648;8.640;2022-08-19T08:31:18;4.93;;;2.90;;
46086;SDS011;31824;49.648;8.640;2022-08-19T08:34:22;6.40;;;3.67;;
46086;SDS011;31824;49.648;8.640;2022-08-19T08:37:24;6.30;;;3.28;;
46086;SDS011;31824;49.648;8.640;2022-08-19T08:44:11;5.50;;;2.78;;
46086;SDS011;31824;49.648;8.640;2022-08-19T08:47:22;6.07;;;2.58;;
46086;SDS011;31824;49.648;8.640;2022-08-19T08:50:30;6.20;;;2.90;;
46086;SDS011;31824;49.648;8.640;2022-08-19T08:53:40;5.13;;;2.78;;
46086;SDS011;31824;49.648;8.640;2022-08-19T08:56:43;5.57;;;2.38;;
46086;SDS011;31824;49.648;8.640;2022-08-19T08:59:51;4.38;;;2.53;;
46086;SDS011;31824;49.648;8.640;2022-08-19T09:02:59;5.43;;;2.33;;
46086;SDS011;31824;49.648;8.640;2022-08-19T09:06:20;5.55;;;2.33;;
46086;SDS011;31824;49.648;8.640;2022-08-19T09:09:33;4.95;;;2.60;;
46086;SDS011;31824;49.648;8.640;2022-08-19T09:15:48;5.93;;;3.10;;
46086;SDS011;31824;49.648;8.640;2022-08-19T09:18:57;4.30;;;2.30;;
46086;SDS011;31824;49.648;8.640;2022-08-19T09:22:06;5.03;;;2.63;;
46086;SDS011;31824;49.648;8.640;2022-08-19T09:28:14;4.38;;;2.20;;
46086;SDS011;31824;49.648;8.640;2022-08-19T09:31:29;5.50;;;2.67;;
46086;SDS011;31824;49.648;8.640;2022-08-19T09:34:31;5.95;;;2.80;;
46086;SDS011;31824;49.648;8.640;2022-08-19T09:37:38;4.07;;;1.77;;
46086;SDS011;31824;49.648;8.640;2022-08-19T09:40:40;4.70;;;2.08;;
46086;SDS011;31824;49.648;8.640;2022-08-19T09:43:43;3.50;;;2.00;;
46086;SDS011;31824;49.648;8.640;2022-08-19T09:46:48;7.35;;;2.20;;
46086;SDS011;31824;49.648;8.640;2022-08-19T09:49:50;2.92;;;1.92;;
46086;SDS011;31824;49.648;8.640;2022-08-19T09:52:51;2.78;;;1.77;;
46086;SDS011;31824;49.648;8.640;2022-08-19T09:55:58;3.63;;;1.98;;
46086;SDS011;31824;49.648;8.640;2022-08-19T09:58:59;3.85;;;2.05;;
46086;SDS011;31824;49.648;8.640;2022-08-19T10:02:02;2.25;;;1.40;;
46086;SDS011;31824;49.648;8.640;2022-08-19T10:05:11;2.72;;;1.80;;
46086;SDS011;31824;49.648;8.640;2022-08-19T10:08:33;4.53;;;2.22;;
46086;SDS011;31824;49.648;8.640;2022-08-19T10:11:39;2.53;;;1.55;;
46086;SDS011;31824;49.648;8.640;2022-08-19T10:14:54;2.97;;;1.65;;
46086;SDS011;31824;49.648;8.640;2022-08-19T10:17:55;3.38;;;1.73;;
46086;SDS011;31824;49.648;8.640;2022-08-19T10:21:09;2.85;;;1.52;;
46086;SDS011;31824;49.648;8.640;2022-08-19T10:24:12;3.78;;;1.98;;
46086;SDS011;31824;49.648;8.640;2022-08-19T10:27:15;3.90;;;1.80;;
46086;SDS011;31824;49.648;8.640;2022-08-19T10:30:16;2.70;;;1.58;;
46086;SDS011;31824;49.648;8.640;2022-08-19T10:33:20;3.40;;;1.98;;
46086;SDS011;31824;49.648;8.640;2022-08-19T10:36:41;3.22;;;1.60;;
46086;SDS011;31824;49.648;8.640;2022-08-19T10:40:00;4.13;;;1.98;;
46086;SDS011;31824;49.648;8.640;2022-08-19T10:43:03;3.70;;;1.95;;
46086;SDS011;31824;49.648;8.640;2022-08-19T10:46:06;5.15;;;2.30;;
46086;SDS011;31824;49.648;8.640;2022-08-19T10:49:14;3.35;;;1.95;;
46086;SDS011;31824;49.648;8.640;2022-08-19T10:52:17;3.45;;;1.90;;
46086;SDS011;31824;49.648;8.640;2022-08-19T10:55:39;3.40;;;2.08;;
46086;SDS011;31824;49.648;8.640;2022-08-19T10:58:59;3.13;;;1.95;;
46086;SDS011;31824;49.648;8.640;2022-08-19T11:02:01;3.83;;;2.28;;
46086;SDS011;31824;49.648;8.640;2022-08-19T11:05:05;3.10;;;2.00;;
46086;SDS011;31824;49.648;8.640;2022-08-19T11:08:13;4.10;;;1.90;;
46086;SDS011;31824;49.648;8.640;2022-08-19T11:11:24;4.68;;;2.30;;
46086;SDS011;31824;49.648;8.640;2022-08-19T11:14:25;4.22;;;2.55;;
46086;SDS011;31824;49.648;8.640;2022-08-19T11:17:32;3.75;;;2.28;;
46086;SDS011;31824;49.648;8.640;2022-08-19T11:20:34;4.80;;;2.05;;
46086;SDS011;31824;49.648;8.640;2022-08-19T11:23:35;2.92;;;2.00;;
46086;SDS011;31824;49.648;8.640;2022-08-19T11:26:37;4.63;;;2.80;;
46086;SDS011;31824;49.648;8.640;2022-08-19T11:29:40;3.58;;;2.03;;
46086;SDS011;31824;49.648;8.640;2022-08-19T11:32:41;5.35;;;2.65;;
46086;SDS011;31824;49.648;8.640;2022-08-19T11:35:49;3.97;;;1.60;;
46086;SDS011;31824;49.648;8.640;2022-08-19T11:38:51;4.03;;;2.45;;
46086;SDS011;31824;49.648;8.640;2022-08-19T11:41:53;5.07;;;2.40;;
46086;SDS011;31824;49.648;8.640;2022-08-19T11:44:54;3.80;;;2.08;;
46086;SDS011;31824;49.648;8.640;2022-08-19T11:47:56;5.07;;;2.10;;
46086;SDS011;31824;49.648;8.640;2022-08-19T11:50:58;4.50;;;2.38;;
46086;SDS011;31824;49.648;8.640;2022-08-19T11:54:00;5.35;;;3.40;;
46086;SDS011;31824;49.648;8.640;2022-08-19T11:57:03;5.40;;;3.45;;
46086;SDS011;31824;49.648;8.640;2022-08-19T12:00:05;5.88;;;3.95;;
46086;SDS011;31824;49.648;8.640;2022-08-19T12:03:08;6.78;;;4.28;;
46086;SDS011;31824;49.648;8.640;2022-08-19T12:06:25;5.80;;;4.05;;
46086;SDS011;31824;49.648;8.640;2022-08-19T12:09:29;4.97;;;3.30;;
46086;SDS011;31824;49.648;8.640;2022-08-19T12:12:33;5.35;;;3.47;;
46086;SDS011;31824;49.648;8.640;2022-08-19T12:15:35;5.90;;;3.90;;
46086;SDS011;31824;49.648;8.640;2022-08-19T12:18:42;5.90;;;3.92;;
46086;SDS011;31824;49.648;8.640;2022-08-19T12:21:47;6.47;;;4.05;;
46086;SDS011;31824;49.648;8.640;2022-08-19T12:24:49;5.78;;;3.40;;
46086;SDS011;31824;49.648;8.640;2022-08-19T12:27:53;4.82;;;3.50;;
46086;SDS011;31824;49.648;8.640;2022-08-19T12:30:58;6.22;;;3.63;;
46086;SDS011;31824;49.648;8.640;2022-08-19T12:33:59;5.40;;;3.92;;
46086;SDS011;31824;49.648;8.640;2022-08-19T12:37:02;5.63;;;3.47;;
46086;SDS011;31824;49.648;8.640;2022-08-19T12:40:06;5.20;;;3.33;;
46086;SDS011;31824;49.648;8.640;2022-08-19T12:43:08;5.85;;;3.80;;
46086;SDS011;31824;49.648;8.640;2022-08-19T12:46:10;5.38;;;3.13;;
46086;SDS011;31824;49.648;8.640;2022-08-19T12:49:13;4.32;;;2.83;;
46086;SDS011;31824;49.648;8.640;2022-08-19T12:52:35;4.57;;;2.78;;
46086;SDS011;31824;49.648;8.640;2022-08-19T12:55:38;3.50;;;2.40;;
46086;SDS011;31824;49.648;8.640;2022-08-19T12:58:40;6.63;;;2.67;;
46086;SDS011;31824;49.648;8.640;2022-08-19T13:01:49;4.47;;;2.70;;
46086;SDS011;31824;49.648;8.640;2022-08-19T13:04:50;4.53;;;2.70;;
46086;SDS011;31824;49.648;8.640;2022-08-19T13:07:53;4.13;;;2.28;;
46086;SDS011;31824;49.648;8.640;2022-08-19T13:10:57;3.83;;;2.13;;
46086;SDS011;31824;49.648;8.640;2022-08-19T13:14:00;4.13;;;2.33;;
46086;SDS011;31824;49.648;8.640;2022-08-19T13:17:03;2.67;;;1.70;;
46086;SDS011;31824;49.648;8.640;2022-08-19T13:20:05;2.72;;;1.63;;
46086;SDS011;31824;49.648;8.640;2022-08-19T13:23:09;2.55;;;1.65;;
46086;SDS011;31824;49.648;8.640;2022-08-19T13:26:11;4.35;;;1.90;;
46086;SDS011;31824;49.648;8.640;2022-08-19T13:29:13;3.55;;;1.92;;
46086;SDS011;31824;49.648;8.640;2022-08-19T13:32:34;3.17;;;2.00;;
46086;SDS011;31824;49.648;8.640;2022-08-19T13:35:57;3.55;;;1.85;;
46086;SDS011;31824;49.648;8.640;2022-08-19T13:39:01;3.78;;;1.67;;
46086;SDS011;31824;49.648;8.640;2022-08-19T13:42:04;3.45;;;2.00;;
46086;SDS011;31824;49.648;8.640;2022-08-19T13:45:07;3.28;;;1.70;;
46086;SDS011;31824;49.648;8.640;2022-08-19T13:48:10;2.75;;;1.63;;
46086;SDS011;31824;49.648;8.640;2022-08-19T13:51:11;3.90;;;2.13;;
46086;SDS011;31824;49.648;8.640;2022-08-19T13:54:13;2.97;;;1.80;;
46086;SDS011;31824;49.648;8.640;2022-08-19T13:57:14;2.67;;;1.52;;
46086;SDS011;31824;49.648;8.640;2022-08-19T14:00:17;2.92;;;1.58;;
46086;SDS011;31824;49.648;8.640;2022-08-19T14:03:19;2.95;;;1.83;;
46086;SDS011;31824;49.648;8.640;2022-08-19T14:06:20;3.03;;;1.75;;
46086;SDS011;31824;49.648;8.640;2022-08-19T14:09:23;1.95;;;1.40;;
46086;SDS011;31824;49.648;8.640;2022-08-19T14:12:24;3.58;;;1.95;;
46086;SDS011;31824;49.648;8.640;2022-08-19T14:15:29;2.97;;;1.80;;
46086;SDS011;31824;49.648;8.640;2022-08-19T14:18:31;3.50;;;1.95;;
46086;SDS011;31824;49.648;8.640;2022-08-19T14:21:32;3.90;;;2.13;;
46086;SDS011;31824;49.648;8.640;2022-08-19T14:24:39;3.97;;;2.28;;
46086;SDS011;31824;49.648;8.640;2022-08-19T14:27:48;2.83;;;1.83;;
46086;SDS011;31824;49.648;8.640;2022-08-19T14:30:49;2.67;;;1.80;;
46086;SDS011;31824;49.648;8.640;2022-08-19T14:33:56;3.20;;;1.88;;
46086;SDS011;31824;49.648;8.640;2022-08-19T14:36:58;3.45;;;2.17;;
46086;SDS011;31824;49.648;8.640;2022-08-19T14:40:02;3.53;;;1.83;;
46086;SDS011;31824;49.648;8.640;2022-08-19T14:43:05;2.33;;;1.40;;
46086;SDS011;31824;49.648;8.640;2022-08-19T14:46:06;2.97;;;1.60;;
46086;SDS011;31824;49.648;8.640;2022-08-19T14:49:10;3.67;;;1.58;;
46086;SDS011;31824;49.648;8.640;2022-08-19T14:52:12;2.80;;;1.92;;
46086;SDS011;31824;49.648;8.640;2022-08-19T14:55:14;3.25;;;1.65;;
46086;SDS011;31824;49.648;8.640;2022-08-19T15:01:30;3.13;;;1.70;;
46086;SDS011;31824;49.648;8.640;2022-08-19T15:04:32;3.40;;;1.60;;
46086;SDS011;31824;49.648;8.640;2022-08-19T15:07:34;3.20;;;1.60;;
46086;SDS011;31824;49.648;8.640;2022-08-19T15:10:40;2.78;;;1.50;;
46086;SDS011;31824;49.648;8.640;2022-08-19T15:13:41;2.42;;;1.67;;
46086;SDS011;31824;49.648;8.640;2022-08-19T15:16:45;3.25;;;1.77;;
46086;SDS011;31824;49.648;8.640;2022-08-19T15:19:46;3.05;;;1.80;;
46086;SDS011;31824;49.648;8.640;2022-08-19T15:22:48;2.97;;;1.80;;
46086;SDS011;31824;49.648;8.640;2022-08-19T15:25:50;3.90;;;1.83;;
46086;SDS011;31824;49.648;8.640;2022-08-19T15:28:56;3.50;;;1.63;;
46086;SDS011;31824;49.648;8.640;2022-08-19T15:31:58;3.42;;;1.90;;
46086;SDS011;31824;49.648;8.640;2022-08-19T15:35:01;4.00;;;1.80;;
46086;SDS011;31824;49.648;8.640;2022-08-19T15:38:04;3.67;;;1.67;;
46086;SDS011;31824;49.648;8.640;2022-08-19T15:41:13;3.72;;;1.98;;
46086;SDS011;31824;49.648;8.640;2022-08-19T15:44:37;2.60;;;1.40;;
46086;SDS011;31824;49.648;8.640;2022-08-19T15:47:39;2.97;;;1.63;;
46086;SDS011;31824;49.648;8.640;2022-08-19T15:50:42;2.83;;;1.75;;
46086;SDS011;31824;49.648;8.640;2022-08-19T15:53:44;2.50;;;1.27;;
46086;SDS011;31824;49.648;8.640;2022-08-19T15:56:46;2.50;;;1.38;;
46086;SDS011;31824;49.648;8.640;2022-08-19T16:00:07;3.13;;;1.25;;
46086;SDS011;31824;49.648;8.640;2022-08-19T16:03:28;2.47;;;1.65;;
46086;SDS011;31824;49.648;8.640;2022-08-19T16:06:54;2.75;;;1.50;;
46086;SDS011;31824;49.648;8.640;2022-08-19T16:09:57;2.63;;;1.40;;
46086;SDS011;31824;49.648;8.640;2022-08-19T16:13:18;3.28;;;1.50;;
46086;SDS011;31824;49.648;8.640;2022-08-19T16:16:20;2.63;;;1.58;;
46086;SDS011;31824;49.648;8.640;2022-08-19T16:19:31;2.72;;;1.67;;
46086;SDS011;31824;49.648;8.640;2022-08-19T16:22:33;4.10;;;1.98;;
46086;SDS011;31824;49.648;8.640;2022-08-19T16:25:35;2.28;;;1.33;;
46086;SDS011;31824;49.648;8.640;2022-08-19T16:28:36;3.28;;;1.88;;
46086;SDS011;31824;49.648;8.640;2022-08-19T16:31:38;2.90;;;1.60;;
46086;SDS011;31824;49.648;8.640;2022-08-19T16:34:42;2.88;;;1.52;;
46086;SDS011;31824;49.648;8.640;2022-08-19T16:37:43;2.85;;;1.70;;
46086;SDS011;31824;49.648;8.640;2022-08-19T16:40:45;2.80;;;1.70;;
46086;SDS011;31824;49.648;8.640;2022-08-19T16:43:54;2.55;;;1.65;;
46086;SDS011;31824;49.648;8.640;2022-08-19T16:46:56;3.10;;;1.80;;
46086;SDS011;31824;49.648;8.640;2022-08-19T16:50:00;3.10;;;1.83;;
46086;SDS011;31824;49.648;8.640;2022-08-19T16:53:01;2.80;;;1.63;;
46086;SDS011;31824;49.648;8.640;2022-08-19T16:56:03;3.55;;;1.73;;
46086;SDS011;31824;49.648;8.640;2022-08-19T16:59:05;3.22;;;1.85;;
46086;SDS011;31824;49.648;8.640;2022-08-19T17:02:07;4.45;;;1.98;;
46086;SDS011;31824;49.648;8.640;2022-08-19T17:05:10;3.65;;;1.80;;
46086;SDS011;31824;49.648;8.640;2022-08-19T17:08:12;3.33;;;1.85;;
46086;SDS011;31824;49.648;8.640;2022-08-19T17:11:17;3.13;;;1.63;;
46086;SDS011;31824;49.648;8.640;2022-08-19T17:14:20;3.42;;;2.00;;
46086;SDS011;31824;49.648;8.640;2022-08-19T17:17:22;5.45;;;1.92;;
46086;SDS011;31824;49.648;8.640;2022-08-19T17:20:29;2.85;;;1.73;;
46086;SDS011;31824;49.648;8.640;2022-08-19T17:23:31;3.08;;;2.08;;
46086;SDS011;31824;49.648;8.640;2022-08-19T17:26:44;2.65;;;1.80;;
46086;SDS011;31824;49.648;8.640;2022-08-19T17:29:45;4.80;;;2.00;;
46086;SDS011;31824;49.648;8.640;2022-08-19T17:32:47;4.35;;;2.53;;
46086;SDS011;31824;49.648;8.640;2022-08-19T17:35:49;3.63;;;2.05;;
46086;SDS011;31824;49.648;8.640;2022-08-19T17:38:51;3.03;;;1.67;;
46086;SDS011;31824;49.648;8.640;2022-08-19T17:41:55;3.35;;;1.83;;
46086;SDS011;31824;49.648;8.640;2022-08-19T17:45:03;5.63;;;1.90;;
46086;SDS011;31824;49.648;8.640;2022-08-19T17:48:05;3.20;;;2.03;;
46086;SDS011;31824;49.648;8.640;2022-08-19T17:54:24;3.03;;;1.75;;
46086;SDS011;31824;49.648;8.640;2022-08-19T17:57:34;3.10;;;1.60;;
46086;SDS011;31824;49.648;8.640;2022-08-19T18:00:35;4.05;;;2.10;;
46086;SDS011;31824;49.648;8.640;2022-08-19T18:03:52;3.38;;;1.85;;
46086;SDS011;31824;49.648;8.640;2022-08-19T18:06:54;4.15;;;2.30;;
46086;SDS011;31824;49.648;8.640;2022-08-19T18:09:56;3.42;;;2.15;;
46086;SDS011;31824;49.648;8.640;2022-08-19T18:13:02;4.15;;;2.10;;
46086;SDS011;31824;49.648;8.640;2022-08-19T18:16:17;3.80;;;2.08;;
46086;SDS011;31824;49.648;8.640;2022-08-19T18:19:21;3.20;;;1.95;;
46086;SDS011;31824;49.648;8.640;2022-08-19T18:22:28;3.72;;;2.30;;
46086;SDS011;31824;49.648;8.640;2022-08-19T18:25:36;5.13;;;2.33;;
46086;SDS011;31824;49.648;8.640;2022-08-19T18:28:43;4.07;;;2.17;;
46086;SDS011;31824;49.648;8.640;2022-08-19T18:31:50;3.88;;;2.15;;
46086;SDS011;31824;49.648;8.640;2022-08-19T18:34:53;3.53;;;2.22;;
46086;SDS011;31824;49.648;8.640;2022-08-19T18:37:56;3.38;;;2.10;;
46086;SDS011;31824;49.648;8.640;2022-08-19T18:41:00;4.18;;;1.70;;
46086;SDS011;31824;49.648;8.640;2022-08-19T18:44:21;4.57;;;2.30;;
46086;SDS011;31824;49.648;8.640;2022-08-19T18:47:41;3.67;;;2.17;;
46086;SDS011;31824;49.648;8.640;2022-08-19T18:51:28;3.40;;;2.30;;